sensor_id;sensor_type;location;lat;lon;timestamp;P1;durP1;ratioP1;P2;durP2;ratioP2
14603;SDS011;7388;51.078;13.740;2023-02-22T00:01:17;8.57;;;4.40;;
14603;SDS011;7388;51.078;13.740;2023-02-22T00:04:11;7.57;;;6.07;;
14603;SDS011;7388;51.078;13.740;2023-02-22T00:06:38;6.47;;;4.85;;
14603;SDS011;7388;51.078;13.740;2023-02-22T00:09:03;7.03;;;4.77;;
14603;SDS011;7388;51.078;13.740;2023-02-22T00:11:30;6.63;;;5.20;;
14603;SDS011;7388;51.078;13.740;2023-02-22T00:13:56;7.90;;;5.47;;
14603;SDS011;7388;51.078;13.740;2023-02-22T00:16:22;5.93;;;5.33;;
14603;SDS011;7388;51.078;13.740;2023-02-22T00:18:51;6.18;;;4.85;;
14603;SDS011;7388;51.078;13.740;2023-02-22T00:21:17;8.93;;;5.55;;
14603;SDS011;7388;51.078;13.740;2023-02-22T00:23:44;9.75;;;5.55;;
14603;SDS011;7388;51.078;13.740;2023-02-22T00:26:18;6.70;;;4.35;;
14603;SDS011;7388;51.078;13.740;2023-02-22T00:28:46;5.72;;;4.57;;
14603;SDS011;7388;51.078;13.740;2023-02-22T00:31:13;10.05;;;5.75;;
14603;SDS011;7388;51.078;13.740;2023-02-22T00:33:40;6.07;;;4.33;;
14603;SDS011;7388;51.078;13.740;2023-02-22T00:36:06;6.78;;;4.68;;
14603;SDS011;7388;51.078;13.740;2023-02-22T00:38:32;6.28;;;4.78;;
14603;SDS011;7388;51.078;13.740;2023-02-22T00:40:58;7.80;;;4.53;;
14603;SDS011;7388;51.078;13.740;2023-02-22T00:43:24;8.50;;;4.70;;
14603;SDS011;7388;51.078;13.740;2023-02-22T00:45:50;7.05;;;4.28;;
14603;SDS011;7388;51.078;13.740;2023-02-22T00:48:16;8.80;;;5.23;;
14603;SDS011;7388;51.078;13.740;2023-02-22T00:50:42;7.33;;;5.53;;
14603;SDS011;7388;51.078;13.740;2023-02-22T00:53:07;7.80;;;4.83;;
14603;SDS011;7388;51.078;13.740;2023-02-22T00:55:35;8.10;;;4.68;;
14603;SDS011;7388;51.078;13.740;2023-02-22T00:58:02;5.53;;;4.68;;
14603;SDS011;7388;51.078;13.740;2023-02-22T01:00:37;8.20;;;4.43;;
14603;SDS011;7388;51.078;13.740;2023-02-22T01:03:04;5.82;;;4.82;;
14603;SDS011;7388;51.078;13.740;2023-02-22T01:05:31;6.35;;;5.30;;
14603;SDS011;7388;51.078;13.740;2023-02-22T01:07:58;7.43;;;4.87;;
14603;SDS011;7388;51.078;13.740;2023-02-22T01:10:27;5.95;;;4.25;;
14603;SDS011;7388;51.078;13.740;2023-02-22T01:12:54;7.60;;;4.68;;
14603;SDS011;7388;51.078;13.740;2023-02-22T01:18:24;6.85;;;4.95;;
14603;SDS011;7388;51.078;13.740;2023-02-22T01:20:50;11.13;;;4.03;;
14603;SDS011;7388;51.078;13.740;2023-02-22T01:23:16;8.70;;;4.60;;
14603;SDS011;7388;51.078;13.740;2023-02-22T01:25:42;5.50;;;4.50;;
14603;SDS011;7388;51.078;13.740;2023-02-22T01:28:07;5.77;;;4.67;;
14603;SDS011;7388;51.078;13.740;2023-02-22T01:30:34;6.03;;;5.10;;
14603;SDS011;7388;51.078;13.740;2023-02-22T01:33:01;8.57;;;4.97;;
14603;SDS011;7388;51.078;13.740;2023-02-22T01:35:36;10.60;;;6.03;;
14603;SDS011;7388;51.078;13.740;2023-02-22T01:38:05;6.68;;;3.85;;
14603;SDS011;7388;51.078;13.740;2023-02-22T01:40:32;7.95;;;4.10;;
14603;SDS011;7388;51.078;13.740;2023-02-22T01:43:01;7.05;;;5.07;;
14603;SDS011;7388;51.078;13.740;2023-02-22T01:50:25;9.70;;;5.13;;
14603;SDS011;7388;51.078;13.740;2023-02-22T01:52:53;7.63;;;5.90;;
14603;SDS011;7388;51.078;13.740;2023-02-22T01:55:19;6.82;;;4.90;;
14603;SDS011;7388;51.078;13.740;2023-02-22T01:57:53;7.13;;;4.60;;
14603;SDS011;7388;51.078;13.740;2023-02-22T02:00:19;10.38;;;5.50;;
14603;SDS011;7388;51.078;13.740;2023-02-22T02:02:47;6.80;;;4.90;;
14603;SDS011;7388;51.078;13.740;2023-02-22T02:05:16;13.55;;;5.47;;
14603;SDS011;7388;51.078;13.740;2023-02-22T02:07:43;6.28;;;4.38;;
14603;SDS011;7388;51.078;13.740;2023-02-22T02:10:27;7.60;;;4.25;;
14603;SDS011;7388;51.078;13.740;2023-02-22T02:12:53;7.00;;;4.47;;
14603;SDS011;7388;51.078;13.740;2023-02-22T02:15:29;6.20;;;4.00;;
14603;SDS011;7388;51.078;13.740;2023-02-22T02:17:57;7.70;;;5.22;;
14603;SDS011;7388;51.078;13.740;2023-02-22T02:28:38;9.45;;;5.85;;
14603;SDS011;7388;51.078;13.740;2023-02-22T02:33:58;6.93;;;4.45;;
14603;SDS011;7388;51.078;13.740;2023-02-22T02:36:29;6.78;;;4.88;;
14603;SDS011;7388;51.078;13.740;2023-02-22T02:39:15;7.70;;;4.78;;
14603;SDS011;7388;51.078;13.740;2023-02-22T02:41:51;7.18;;;5.30;;
14603;SDS011;7388;51.078;13.740;2023-02-22T02:46:58;9.93;;;5.32;;
14603;SDS011;7388;51.078;13.740;2023-02-22T02:52:28;7.55;;;4.82;;
14603;SDS011;7388;51.078;13.740;2023-02-22T02:54:57;7.38;;;4.88;;
14603;SDS011;7388;51.078;13.740;2023-02-22T02:57:25;8.50;;;5.53;;
14603;SDS011;7388;51.078;13.740;2023-02-22T02:59:51;7.00;;;4.93;;
14603;SDS011;7388;51.078;13.740;2023-02-22T03:09:06;6.55;;;4.70;;
14603;SDS011;7388;51.078;13.740;2023-02-22T03:11:28;8.35;;;5.35;;
14603;SDS011;7388;51.078;13.740;2023-02-22T03:16:44;7.07;;;5.03;;
14603;SDS011;7388;51.078;13.740;2023-02-22T03:19:18;7.75;;;4.90;;
14603;SDS011;7388;51.078;13.740;2023-02-22T03:30:09;6.90;;;5.13;;
14603;SDS011;7388;51.078;13.740;2023-02-22T03:32:41;5.97;;;4.63;;
14603;SDS011;7388;51.078;13.740;2023-02-22T03:35:13;7.53;;;5.28;;
14603;SDS011;7388;51.078;13.740;2023-02-22T03:37:55;7.38;;;5.57;;
14603;SDS011;7388;51.078;13.740;2023-02-22T03:40:32;10.40;;;5.10;;
14603;SDS011;7388;51.078;13.740;2023-02-22T03:43:09;8.40;;;5.50;;
14603;SDS011;7388;51.078;13.740;2023-02-22T03:45:41;8.73;;;4.90;;
14603;SDS011;7388;51.078;13.740;2023-02-22T03:51:00;7.38;;;5.38;;
14603;SDS011;7388;51.078;13.740;2023-02-22T03:53:28;8.50;;;4.90;;
14603;SDS011;7388;51.078;13.740;2023-02-22T03:56:20;9.50;;;6.00;;
14603;SDS011;7388;51.078;13.740;2023-02-22T03:58:51;8.27;;;5.43;;
14603;SDS011;7388;51.078;13.740;2023-02-22T04:01:17;6.05;;;4.13;;
14603;SDS011;7388;51.078;13.740;2023-02-22T04:03:44;7.53;;;6.40;;
14603;SDS011;7388;51.078;13.740;2023-02-22T04:06:09;7.43;;;5.80;;
14603;SDS011;7388;51.078;13.740;2023-02-22T04:08:35;8.00;;;5.97;;
14603;SDS011;7388;51.078;13.740;2023-02-22T04:11:01;9.40;;;5.60;;
14603;SDS011;7388;51.078;13.740;2023-02-22T04:13:27;6.73;;;5.37;;
14603;SDS011;7388;51.078;13.740;2023-02-22T04:15:53;10.23;;;6.87;;
14603;SDS011;7388;51.078;13.740;2023-02-22T04:18:18;7.40;;;5.50;;
14603;SDS011;7388;51.078;13.740;2023-02-22T04:21:15;9.55;;;7.70;;
14603;SDS011;7388;51.078;13.740;2023-02-22T04:23:41;11.10;;;7.77;;
14603;SDS011;7388;51.078;13.740;2023-02-22T04:26:06;10.37;;;7.57;;
14603;SDS011;7388;51.078;13.740;2023-02-22T04:28:32;10.30;;;7.10;;
14603;SDS011;7388;51.078;13.740;2023-02-22T04:30:58;7.33;;;5.40;;
14603;SDS011;7388;51.078;13.740;2023-02-22T04:33:24;9.97;;;6.40;;
14603;SDS011;7388;51.078;13.740;2023-02-22T04:35:49;13.70;;;7.13;;
14603;SDS011;7388;51.078;13.740;2023-02-22T04:38:15;8.47;;;5.93;;
14603;SDS011;7388;51.078;13.740;2023-02-22T04:40:41;12.68;;;7.18;;
14603;SDS011;7388;51.078;13.740;2023-02-22T04:43:07;8.40;;;6.70;;
14603;SDS011;7388;51.078;13.740;2023-02-22T04:45:33;16.83;;;7.70;;
14603;SDS011;7388;51.078;13.740;2023-02-22T04:47:59;13.73;;;8.83;;
14603;SDS011;7388;51.078;13.740;2023-02-22T04:50:24;11.70;;;7.50;;
14603;SDS011;7388;51.078;13.740;2023-02-22T04:52:50;9.20;;;7.07;;
14603;SDS011;7388;51.078;13.740;2023-02-22T04:55:16;10.50;;;7.27;;
14603;SDS011;7388;51.078;13.740;2023-02-22T04:57:42;12.63;;;7.70;;
14603;SDS011;7388;51.078;13.740;2023-02-22T05:00:08;6.73;;;5.63;;
14603;SDS011;7388;51.078;13.740;2023-02-22T05:02:57;9.63;;;7.10;;
14603;SDS011;7388;51.078;13.740;2023-02-22T05:05:22;7.80;;;5.93;;
14603;SDS011;7388;51.078;13.740;2023-02-22T05:07:48;10.90;;;6.10;;
14603;SDS011;7388;51.078;13.740;2023-02-22T05:10:15;9.55;;;6.18;;
14603;SDS011;7388;51.078;13.740;2023-02-22T05:12:59;8.82;;;6.40;;
14603;SDS011;7388;51.078;13.740;2023-02-22T05:15:25;6.90;;;5.15;;
14603;SDS011;7388;51.078;13.740;2023-02-22T05:17:51;8.00;;;5.97;;
14603;SDS011;7388;51.078;13.740;2023-02-22T05:20:21;7.80;;;6.45;;
14603;SDS011;7388;51.078;13.740;2023-02-22T05:22:56;7.63;;;5.45;;
14603;SDS011;7388;51.078;13.740;2023-02-22T05:25:23;12.52;;;6.88;;
14603;SDS011;7388;51.078;13.740;2023-02-22T05:27:50;11.65;;;7.78;;
14603;SDS011;7388;51.078;13.740;2023-02-22T05:30:34;12.00;;;7.57;;
14603;SDS011;7388;51.078;13.740;2023-02-22T05:33:10;9.82;;;6.97;;
14603;SDS011;7388;51.078;13.740;2023-02-22T05:35:37;11.90;;;8.32;;
14603;SDS011;7388;51.078;13.740;2023-02-22T05:38:21;8.80;;;6.97;;
14603;SDS011;7388;51.078;13.740;2023-02-22T05:40:47;9.60;;;6.75;;
14603;SDS011;7388;51.078;13.740;2023-02-22T05:43:13;11.03;;;7.67;;
14603;SDS011;7388;51.078;13.740;2023-02-22T05:45:40;10.02;;;7.35;;
14603;SDS011;7388;51.078;13.740;2023-02-22T05:48:06;8.43;;;6.30;;
14603;SDS011;7388;51.078;13.740;2023-02-22T05:50:32;14.13;;;6.47;;
14603;SDS011;7388;51.078;13.740;2023-02-22T05:52:58;15.30;;;7.45;;
14603;SDS011;7388;51.078;13.740;2023-02-22T05:55:24;12.38;;;8.65;;
14603;SDS011;7388;51.078;13.740;2023-02-22T05:57:50;10.63;;;6.83;;
14603;SDS011;7388;51.078;13.740;2023-02-22T06:00:24;15.20;;;7.72;;
14603;SDS011;7388;51.078;13.740;2023-02-22T06:02:56;10.55;;;6.80;;
14603;SDS011;7388;51.078;13.740;2023-02-22T06:05:26;15.88;;;7.45;;
14603;SDS011;7388;51.078;13.740;2023-02-22T06:07:52;8.35;;;6.28;;
14603;SDS011;7388;51.078;13.740;2023-02-22T06:10:18;9.80;;;6.50;;
14603;SDS011;7388;51.078;13.740;2023-02-22T06:12:45;12.20;;;7.60;;
14603;SDS011;7388;51.078;13.740;2023-02-22T06:15:12;11.48;;;6.35;;
14603;SDS011;7388;51.078;13.740;2023-02-22T06:17:42;9.93;;;5.72;;
14603;SDS011;7388;51.078;13.740;2023-02-22T06:20:09;9.90;;;7.10;;
14603;SDS011;7388;51.078;13.740;2023-02-22T06:22:35;11.63;;;9.35;;
14603;SDS011;7388;51.078;13.740;2023-02-22T06:25:02;12.03;;;6.63;;
14603;SDS011;7388;51.078;13.740;2023-02-22T06:27:32;12.65;;;8.75;;
14603;SDS011;7388;51.078;13.740;2023-02-22T06:29:58;10.00;;;8.63;;
14603;SDS011;7388;51.078;13.740;2023-02-22T06:32:25;14.43;;;9.60;;
14603;SDS011;7388;51.078;13.740;2023-02-22T06:34:51;14.30;;;9.02;;
14603;SDS011;7388;51.078;13.740;2023-02-22T06:37:17;13.60;;;10.40;;
14603;SDS011;7388;51.078;13.740;2023-02-22T06:39:42;11.50;;;9.90;;
14603;SDS011;7388;51.078;13.740;2023-02-22T06:42:08;13.27;;;9.67;;
14603;SDS011;7388;51.078;13.740;2023-02-22T06:44:34;14.00;;;8.60;;
14603;SDS011;7388;51.078;13.740;2023-02-22T06:47:00;11.10;;;8.23;;
14603;SDS011;7388;51.078;13.740;2023-02-22T06:49:26;12.40;;;8.03;;
14603;SDS011;7388;51.078;13.740;2023-02-22T06:54:57;9.45;;;7.22;;
14603;SDS011;7388;51.078;13.740;2023-02-22T06:57:22;7.80;;;5.70;;
14603;SDS011;7388;51.078;13.740;2023-02-22T06:59:49;12.95;;;7.30;;
14603;SDS011;7388;51.078;13.740;2023-02-22T07:02:14;17.83;;;8.27;;
14603;SDS011;7388;51.078;13.740;2023-02-22T07:04:40;10.57;;;8.63;;
14603;SDS011;7388;51.078;13.740;2023-02-22T07:07:06;11.80;;;8.00;;
14603;SDS011;7388;51.078;13.740;2023-02-22T07:09:31;11.13;;;8.53;;
14603;SDS011;7388;51.078;13.740;2023-02-22T07:11:57;10.83;;;8.13;;
14603;SDS011;7388;51.078;13.740;2023-02-22T07:14:23;13.53;;;8.00;;
14603;SDS011;7388;51.078;13.740;2023-02-22T07:16:49;9.63;;;6.60;;
14603;SDS011;7388;51.078;13.740;2023-02-22T07:19:14;12.07;;;8.30;;
14603;SDS011;7388;51.078;13.740;2023-02-22T07:21:40;13.20;;;7.93;;
14603;SDS011;7388;51.078;13.740;2023-02-22T07:24:06;13.30;;;10.10;;
14603;SDS011;7388;51.078;13.740;2023-02-22T07:26:37;17.73;;;10.93;;
14603;SDS011;7388;51.078;13.740;2023-02-22T07:29:06;13.07;;;9.02;;
14603;SDS011;7388;51.078;13.740;2023-02-22T07:31:35;15.50;;;11.30;;
14603;SDS011;7388;51.078;13.740;2023-02-22T07:34:01;18.23;;;11.25;;
14603;SDS011;7388;51.078;13.740;2023-02-22T07:36:39;20.05;;;9.82;;
14603;SDS011;7388;51.078;13.740;2023-02-22T07:39:04;15.80;;;9.80;;
14603;SDS011;7388;51.078;13.740;2023-02-22T07:41:32;14.85;;;8.77;;
14603;SDS011;7388;51.078;13.740;2023-02-22T07:43:59;14.13;;;9.15;;
14603;SDS011;7388;51.078;13.740;2023-02-22T07:46:24;14.40;;;9.53;;
14603;SDS011;7388;51.078;13.740;2023-02-22T07:48:50;18.23;;;10.87;;
14603;SDS011;7388;51.078;13.740;2023-02-22T07:51:16;18.43;;;11.40;;
14603;SDS011;7388;51.078;13.740;2023-02-22T07:53:44;24.67;;;12.52;;
14603;SDS011;7388;51.078;13.740;2023-02-22T07:56:10;20.23;;;10.80;;
14603;SDS011;7388;51.078;13.740;2023-02-22T07:58:36;18.70;;;10.90;;
14603;SDS011;7388;51.078;13.740;2023-02-22T08:01:02;18.33;;;10.68;;
14603;SDS011;7388;51.078;13.740;2023-02-22T08:03:30;17.80;;;10.35;;
14603;SDS011;7388;51.078;13.740;2023-02-22T08:06:00;14.85;;;10.20;;
14603;SDS011;7388;51.078;13.740;2023-02-22T08:08:27;15.48;;;8.85;;
14603;SDS011;7388;51.078;13.740;2023-02-22T08:10:53;15.70;;;8.95;;
14603;SDS011;7388;51.078;13.740;2023-02-22T08:13:19;16.50;;;10.07;;
14603;SDS011;7388;51.078;13.740;2023-02-22T08:15:46;12.68;;;9.02;;
14603;SDS011;7388;51.078;13.740;2023-02-22T08:18:16;17.50;;;11.30;;
14603;SDS011;7388;51.078;13.740;2023-02-22T08:20:44;14.82;;;9.15;;
14603;SDS011;7388;51.078;13.740;2023-02-22T08:23:11;17.73;;;10.50;;
14603;SDS011;7388;51.078;13.740;2023-02-22T08:25:38;16.60;;;10.07;;
14603;SDS011;7388;51.078;13.740;2023-02-22T08:28:05;19.87;;;10.53;;
14603;SDS011;7388;51.078;13.740;2023-02-22T08:30:33;18.83;;;11.10;;
14603;SDS011;7388;51.078;13.740;2023-02-22T08:33:00;13.95;;;10.05;;
14603;SDS011;7388;51.078;13.740;2023-02-22T08:35:27;13.50;;;10.10;;
14603;SDS011;7388;51.078;13.740;2023-02-22T08:37:56;14.82;;;10.98;;
14603;SDS011;7388;51.078;13.740;2023-02-22T08:40:24;14.80;;;10.90;;
14603;SDS011;7388;51.078;13.740;2023-02-22T08:42:52;18.52;;;11.20;;
14603;SDS011;7388;51.078;13.740;2023-02-22T08:45:18;18.75;;;10.90;;
14603;SDS011;7388;51.078;13.740;2023-02-22T08:47:44;16.48;;;10.88;;
14603;SDS011;7388;51.078;13.740;2023-02-22T08:50:27;23.00;;;10.95;;
14603;SDS011;7388;51.078;13.740;2023-02-22T08:52:55;15.30;;;10.05;;
14603;SDS011;7388;51.078;13.740;2023-02-22T08:55:24;15.00;;;11.10;;
14603;SDS011;7388;51.078;13.740;2023-02-22T08:57:51;16.35;;;12.43;;
14603;SDS011;7388;51.078;13.740;2023-02-22T09:00:18;17.73;;;11.50;;
14603;SDS011;7388;51.078;13.740;2023-02-22T09:02:45;18.67;;;11.35;;
14603;SDS011;7388;51.078;13.740;2023-02-22T09:05:11;14.40;;;9.53;;
14603;SDS011;7388;51.078;13.740;2023-02-22T09:07:39;14.70;;;9.90;;
14603;SDS011;7388;51.078;13.740;2023-02-22T09:10:06;15.50;;;10.60;;
14603;SDS011;7388;51.078;13.740;2023-02-22T09:12:32;19.48;;;10.82;;
14603;SDS011;7388;51.078;13.740;2023-02-22T09:14:58;15.27;;;10.60;;
14603;SDS011;7388;51.078;13.740;2023-02-22T09:17:24;17.10;;;10.03;;
14603;SDS011;7388;51.078;13.740;2023-02-22T09:19:50;13.20;;;10.33;;
14603;SDS011;7388;51.078;13.740;2023-02-22T09:22:15;16.03;;;9.90;;
14603;SDS011;7388;51.078;13.740;2023-02-22T09:24:41;16.80;;;11.47;;
14603;SDS011;7388;51.078;13.740;2023-02-22T09:27:07;17.83;;;10.82;;
14603;SDS011;7388;51.078;13.740;2023-02-22T09:29:34;17.27;;;10.10;;
14603;SDS011;7388;51.078;13.740;2023-02-22T09:32:00;17.57;;;11.70;;
14603;SDS011;7388;51.078;13.740;2023-02-22T09:34:27;12.25;;;9.82;;
14603;SDS011;7388;51.078;13.740;2023-02-22T09:36:54;16.03;;;10.23;;
14603;SDS011;7388;51.078;13.740;2023-02-22T09:39:21;15.82;;;11.02;;
14603;SDS011;7388;51.078;13.740;2023-02-22T09:41:50;17.15;;;10.30;;
14603;SDS011;7388;51.078;13.740;2023-02-22T09:46:53;16.88;;;10.80;;
14603;SDS011;7388;51.078;13.740;2023-02-22T09:54:37;17.23;;;11.32;;
14603;SDS011;7388;51.078;13.740;2023-02-22T09:57:13;16.17;;;10.18;;
14603;SDS011;7388;51.078;13.740;2023-02-22T09:59:52;13.73;;;9.63;;
14603;SDS011;7388;51.078;13.740;2023-02-22T10:02:27;17.67;;;9.88;;
14603;SDS011;7388;51.078;13.740;2023-02-22T10:05:02;15.13;;;10.43;;
14603;SDS011;7388;51.078;13.740;2023-02-22T10:07:38;20.75;;;17.40;;
14603;SDS011;7388;51.078;13.740;2023-02-22T10:10:23;15.57;;;13.07;;
14603;SDS011;7388;51.078;13.740;2023-02-22T10:12:58;15.10;;;10.27;;
14603;SDS011;7388;51.078;13.740;2023-02-22T10:26:31;16.48;;;9.80;;
14603;SDS011;7388;51.078;13.740;2023-02-22T10:31:58;18.65;;;10.80;;
14603;SDS011;7388;51.078;13.740;2023-02-22T10:34:47;12.25;;;9.43;;
14603;SDS011;7388;51.078;13.740;2023-02-22T10:39:47;16.67;;;9.55;;
14603;SDS011;7388;51.078;13.740;2023-02-22T10:42:16;13.02;;;9.48;;
14603;SDS011;7388;51.078;13.740;2023-02-22T10:44:49;14.98;;;9.70;;
14603;SDS011;7388;51.078;13.740;2023-02-22T10:47:14;14.73;;;9.63;;
14603;SDS011;7388;51.078;13.740;2023-02-22T10:49:45;12.60;;;8.05;;
14603;SDS011;7388;51.078;13.740;2023-02-22T10:52:32;10.20;;;7.60;;
14603;SDS011;7388;51.078;13.740;2023-02-22T10:54:59;13.15;;;8.93;;
14603;SDS011;7388;51.078;13.740;2023-02-22T10:57:30;17.27;;;10.60;;
14603;SDS011;7388;51.078;13.740;2023-02-22T11:00:12;12.65;;;8.80;;
14603;SDS011;7388;51.078;13.740;2023-02-22T11:03:32;12.57;;;8.18;;
14603;SDS011;7388;51.078;13.740;2023-02-22T11:05:43;10.32;;;7.70;;
14603;SDS011;7388;51.078;13.740;2023-02-22T11:10:59;9.80;;;7.85;;
14603;SDS011;7388;51.078;13.740;2023-02-22T11:13:37;13.63;;;8.55;;
14603;SDS011;7388;51.078;13.740;2023-02-22T11:16:19;11.85;;;7.43;;
14603;SDS011;7388;51.078;13.740;2023-02-22T11:18:48;9.02;;;8.10;;
14603;SDS011;7388;51.078;13.740;2023-02-22T11:21:19;9.93;;;8.00;;
14603;SDS011;7388;51.078;13.740;2023-02-22T11:23:46;10.77;;;8.00;;
14603;SDS011;7388;51.078;13.740;2023-02-22T11:26:16;8.65;;;6.60;;
14603;SDS011;7388;51.078;13.740;2023-02-22T11:28:51;7.40;;;5.60;;
14603;SDS011;7388;51.078;13.740;2023-02-22T11:31:26;13.73;;;7.53;;
14603;SDS011;7388;51.078;13.740;2023-02-22T11:36:38;10.20;;;7.90;;
14603;SDS011;7388;51.078;13.740;2023-02-22T11:39:18;9.63;;;7.85;;
14603;SDS011;7388;51.078;13.740;2023-02-22T11:41:48;9.48;;;6.72;;
14603;SDS011;7388;51.078;13.740;2023-02-22T11:44:21;8.02;;;7.20;;
14603;SDS011;7388;51.078;13.740;2023-02-22T11:46:55;10.48;;;7.38;;
14603;SDS011;7388;51.078;13.740;2023-02-22T11:49:32;9.30;;;7.25;;
14603;SDS011;7388;51.078;13.740;2023-02-22T12:00:32;8.48;;;6.13;;
14603;SDS011;7388;51.078;13.740;2023-02-22T12:08:41;6.07;;;4.70;;
14603;SDS011;7388;51.078;13.740;2023-02-22T12:14:02;7.97;;;5.22;;
14603;SDS011;7388;51.078;13.740;2023-02-22T12:22:38;8.38;;;5.35;;
14603;SDS011;7388;51.078;13.740;2023-02-22T12:27:55;7.53;;;5.50;;
14603;SDS011;7388;51.078;13.740;2023-02-22T12:30:44;12.10;;;5.93;;
14603;SDS011;7388;51.078;13.740;2023-02-22T12:33:18;7.88;;;6.82;;
14603;SDS011;7388;51.078;13.740;2023-02-22T12:35:52;5.75;;;4.60;;
14603;SDS011;7388;51.078;13.740;2023-02-22T12:38:32;9.25;;;6.22;;
14603;SDS011;7388;51.078;13.740;2023-02-22T12:41:19;6.80;;;5.35;;
14603;SDS011;7388;51.078;13.740;2023-02-22T12:44:54;8.07;;;5.00;;
14603;SDS011;7388;51.078;13.740;2023-02-22T12:46:58;6.00;;;4.55;;
14603;SDS011;7388;51.078;13.740;2023-02-22T12:49:35;5.03;;;4.53;;
14603;SDS011;7388;51.078;13.740;2023-02-22T12:54:47;10.65;;;6.63;;
14603;SDS011;7388;51.078;13.740;2023-02-22T12:57:37;7.32;;;5.72;;
14603;SDS011;7388;51.078;13.740;2023-02-22T13:02:47;14.18;;;5.50;;
14603;SDS011;7388;51.078;13.740;2023-02-22T13:05:33;9.43;;;5.60;;
14603;SDS011;7388;51.078;13.740;2023-02-22T13:10:42;6.03;;;4.97;;
14603;SDS011;7388;51.078;13.740;2023-02-22T13:18:36;6.80;;;5.28;;
14603;SDS011;7388;51.078;13.740;2023-02-22T13:24:01;5.22;;;4.15;;
14603;SDS011;7388;51.078;13.740;2023-02-22T13:27:03;7.50;;;5.38;;
14603;SDS011;7388;51.078;13.740;2023-02-22T13:29:35;6.28;;;5.55;;
14603;SDS011;7388;51.078;13.740;2023-02-22T13:32:10;4.63;;;3.90;;
14603;SDS011;7388;51.078;13.740;2023-02-22T13:34:58;6.38;;;4.38;;
14603;SDS011;7388;51.078;13.740;2023-02-22T13:48:56;9.18;;;5.97;;
14603;SDS011;7388;51.078;13.740;2023-02-22T13:56:51;3.92;;;3.05;;
14603;SDS011;7388;51.078;13.740;2023-02-22T14:01:58;5.72;;;5.18;;
14603;SDS011;7388;51.078;13.740;2023-02-22T14:06:57;5.10;;;3.53;;
14603;SDS011;7388;51.078;13.740;2023-02-22T14:17:37;7.53;;;6.25;;
14603;SDS011;7388;51.078;13.740;2023-02-22T14:20:18;5.07;;;4.40;;
14603;SDS011;7388;51.078;13.740;2023-02-22T14:22:49;12.90;;;7.60;;
14603;SDS011;7388;51.078;13.740;2023-02-22T14:25:33;6.90;;;4.43;;
14603;SDS011;7388;51.078;13.740;2023-02-22T14:28:05;4.75;;;4.03;;
14603;SDS011;7388;51.078;13.740;2023-02-22T14:30:35;5.63;;;3.42;;
14603;SDS011;7388;51.078;13.740;2023-02-22T14:33:03;4.05;;;3.17;;
14603;SDS011;7388;51.078;13.740;2023-02-22T14:36:06;4.75;;;3.35;;
14603;SDS011;7388;51.078;13.740;2023-02-22T14:38:33;4.90;;;3.92;;
14603;SDS011;7388;51.078;13.740;2023-02-22T14:40:59;5.80;;;4.20;;
14603;SDS011;7388;51.078;13.740;2023-02-22T14:43:27;9.60;;;5.07;;
14603;SDS011;7388;51.078;13.740;2023-02-22T14:45:55;4.72;;;4.25;;
14603;SDS011;7388;51.078;13.740;2023-02-22T14:51:04;5.68;;;4.70;;
14603;SDS011;7388;51.078;13.740;2023-02-22T14:56:21;7.22;;;5.53;;
14603;SDS011;7388;51.078;13.740;2023-02-22T14:58:52;8.02;;;5.22;;
14603;SDS011;7388;51.078;13.740;2023-02-22T15:01:36;6.68;;;5.13;;
14603;SDS011;7388;51.078;13.740;2023-02-22T15:06:50;8.60;;;4.65;;
14603;SDS011;7388;51.078;13.740;2023-02-22T15:09:27;7.45;;;5.47;;
14603;SDS011;7388;51.078;13.740;2023-02-22T15:14:27;10.73;;;7.13;;
14603;SDS011;7388;51.078;13.740;2023-02-22T15:16:56;11.13;;;6.85;;
14603;SDS011;7388;51.078;13.740;2023-02-22T15:19:32;17.50;;;9.15;;
14603;SDS011;7388;51.078;13.740;2023-02-22T15:22:01;11.80;;;7.35;;
14603;SDS011;7388;51.078;13.740;2023-02-22T15:24:34;12.35;;;8.70;;
14603;SDS011;7388;51.078;13.740;2023-02-22T15:27:20;10.52;;;7.40;;
14603;SDS011;7388;51.078;13.740;2023-02-22T15:29:46;14.57;;;8.35;;
14603;SDS011;7388;51.078;13.740;2023-02-22T15:32:23;11.17;;;7.70;;
14603;SDS011;7388;51.078;13.740;2023-02-22T15:35:14;12.50;;;8.90;;
14603;SDS011;7388;51.078;13.740;2023-02-22T15:40:30;8.55;;;7.20;;
14603;SDS011;7388;51.078;13.740;2023-02-22T15:42:59;12.02;;;8.02;;
14603;SDS011;7388;51.078;13.740;2023-02-22T15:45:26;8.48;;;7.03;;
14603;SDS011;7388;51.078;13.740;2023-02-22T15:47:54;10.68;;;5.80;;
14603;SDS011;7388;51.078;13.740;2023-02-22T15:50:22;13.45;;;7.70;;
14603;SDS011;7388;51.078;13.740;2023-02-22T15:52:57;15.57;;;10.43;;
14603;SDS011;7388;51.078;13.740;2023-02-22T15:55:35;12.32;;;9.38;;
14603;SDS011;7388;51.078;13.740;2023-02-22T16:00:36;13.52;;;8.85;;
14603;SDS011;7388;51.078;13.740;2023-02-22T16:03:05;20.98;;;8.57;;
14603;SDS011;7388;51.078;13.740;2023-02-22T16:05:37;14.27;;;10.15;;
14603;SDS011;7388;51.078;13.740;2023-02-22T16:08:22;24.15;;;19.48;;
14603;SDS011;7388;51.078;13.740;2023-02-22T16:11:09;10.65;;;6.78;;
14603;SDS011;7388;51.078;13.740;2023-02-22T16:13:41;8.98;;;6.18;;
14603;SDS011;7388;51.078;13.740;2023-02-22T16:18:46;9.93;;;7.15;;
14603;SDS011;7388;51.078;13.740;2023-02-22T16:21:17;12.32;;;7.90;;
14603;SDS011;7388;51.078;13.740;2023-02-22T16:26:30;12.95;;;8.48;;
14603;SDS011;7388;51.078;13.740;2023-02-22T16:28:59;10.40;;;6.40;;
14603;SDS011;7388;51.078;13.740;2023-02-22T16:31:30;10.20;;;7.70;;
14603;SDS011;7388;51.078;13.740;2023-02-22T16:34:02;8.35;;;7.20;;
14603;SDS011;7388;51.078;13.740;2023-02-22T16:36:43;10.52;;;7.28;;
14603;SDS011;7388;51.078;13.740;2023-02-22T16:41:58;12.93;;;8.80;;
14603;SDS011;7388;51.078;13.740;2023-02-22T16:44:26;13.93;;;8.38;;
14603;SDS011;7388;51.078;13.740;2023-02-22T16:46:58;13.95;;;8.32;;
14603;SDS011;7388;51.078;13.740;2023-02-22T16:49:25;10.15;;;8.27;;
14603;SDS011;7388;51.078;13.740;2023-02-22T16:51:51;13.75;;;8.77;;
14603;SDS011;7388;51.078;13.740;2023-02-22T16:54:29;10.65;;;7.90;;
14603;SDS011;7388;51.078;13.740;2023-02-22T16:56:58;10.73;;;6.97;;
14603;SDS011;7388;51.078;13.740;2023-02-22T16:59:26;10.38;;;7.72;;
14603;SDS011;7388;51.078;13.740;2023-02-22T17:01:53;15.60;;;8.57;;
14603;SDS011;7388;51.078;13.740;2023-02-22T17:04:23;12.25;;;7.70;;
14603;SDS011;7388;51.078;13.740;2023-02-22T17:06:50;9.65;;;7.50;;
14603;SDS011;7388;51.078;13.740;2023-02-22T17:09:16;12.05;;;7.60;;
14603;SDS011;7388;51.078;13.740;2023-02-22T17:11:44;11.80;;;8.40;;
14603;SDS011;7388;51.078;13.740;2023-02-22T17:14:15;10.38;;;8.32;;
14603;SDS011;7388;51.078;13.740;2023-02-22T17:16:50;15.10;;;8.77;;
14603;SDS011;7388;51.078;13.740;2023-02-22T17:19:18;12.35;;;9.48;;
14603;SDS011;7388;51.078;13.740;2023-02-22T17:21:47;12.75;;;8.00;;
14603;SDS011;7388;51.078;13.740;2023-02-22T17:24:14;11.77;;;8.65;;
14603;SDS011;7388;51.078;13.740;2023-02-22T17:26:42;12.88;;;8.90;;
14603;SDS011;7388;51.078;13.740;2023-02-22T17:29:08;13.50;;;7.45;;
14603;SDS011;7388;51.078;13.740;2023-02-22T17:31:34;12.60;;;8.53;;
14603;SDS011;7388;51.078;13.740;2023-02-22T17:34:00;11.80;;;8.70;;
14603;SDS011;7388;51.078;13.740;2023-02-22T17:36:28;10.30;;;8.13;;
14603;SDS011;7388;51.078;13.740;2023-02-22T17:38:55;12.75;;;8.15;;
14603;SDS011;7388;51.078;13.740;2023-02-22T17:41:21;11.43;;;9.03;;
14603;SDS011;7388;51.078;13.740;2023-02-22T17:43:46;13.07;;;8.53;;
14603;SDS011;7388;51.078;13.740;2023-02-22T17:46:13;11.90;;;8.75;;
14603;SDS011;7388;51.078;13.740;2023-02-22T17:48:38;12.57;;;8.63;;
14603;SDS011;7388;51.078;13.740;2023-02-22T17:51:05;11.50;;;8.60;;